RAM1452 GMMN-GMMW
Flight info
| Callsign | RAM1452 |
|---|---|
| Flight time | 1h 11m |
| Altitude | 19000 |
| Route | SADIC UR975 FES UM372 ARI |
| Aircraft | AT76/M-SDFGIRY/S |
Departure
| Time | 2026-05-01 09:47 |
|---|---|
| Airport | Mohammed V International Airport (GMMN) |
Arrival
| Time | 2026-05-01 10:59 |
|---|---|
| Airport | Nador Al Aaroui International Airport (GMMW) |
| Time | Latitude | Longitude | Altitude | Speed | Heading |
|---|---|---|---|---|---|
| 2026-05-01 09:28 | 33.37214 | -7.58376 | 646 ft | 0 kts | 118° |
| 2026-05-01 09:42 | 33.37207 | -7.58360 | 646 ft | 10 kts | 117° |
| 2026-05-01 09:43 | 33.37004 | -7.58236 | 643 ft | 20 kts | 166° |
| 2026-05-01 09:43 | 33.36923 | -7.58341 | 643 ft | 23 kts | 254° |
| 2026-05-01 09:43 | 33.36803 | -7.58444 | 643 ft | 30 kts | 164° |
| 2026-05-01 09:44 | 33.36338 | -7.58285 | 649 ft | 28 kts | 163° |
| 2026-05-01 09:44 | 33.36167 | -7.58226 | 649 ft | 23 kts | 162° |
| 2026-05-01 09:44 | 33.36021 | -7.58173 | 652 ft | 20 kts | 162° |
| 2026-05-01 09:45 | 33.35866 | -7.58120 | 653 ft | 27 kts | 170° |
| 2026-05-01 09:45 | 33.35383 | -7.57952 | 657 ft | 39 kts | 163° |
| 2026-05-01 09:45 | 33.35237 | -7.58063 | 658 ft | 25 kts | 255° |
| 2026-05-01 09:46 | 33.35220 | -7.58256 | 656 ft | 19 kts | 317° |
| 2026-05-01 09:46 | 33.35329 | -7.58294 | 656 ft | 13 kts | 339° |
| 2026-05-01 09:46 | 33.35576 | -7.58381 | 653 ft | 75 kts | 344° |
| 2026-05-01 09:46 | 33.36270 | -7.58638 | 754 ft | 121 kts | 343° |
| 2026-05-01 09:47 | 33.37112 | -7.58965 | 987 ft | 147 kts | 344° |
| 2026-05-01 09:47 | 33.38141 | -7.59328 | 1389 ft | 162 kts | 345° |
| 2026-05-01 09:47 | 33.39260 | -7.59735 | 1813 ft | 174 kts | 347° |
| 2026-05-01 09:47 | 33.40411 | -7.60030 | 2374 ft | 172 kts | 8° |
| 2026-05-01 09:48 | 33.41526 | -7.59607 | 2975 ft | 169 kts | 22° |
| 2026-05-01 09:48 | 33.42611 | -7.59138 | 3528 ft | 172 kts | 23° |
| 2026-05-01 09:48 | 33.43739 | -7.58651 | 4071 ft | 175 kts | 24° |
| 2026-05-01 09:48 | 33.44759 | -7.57912 | 4587 ft | 172 kts | 50° |
| 2026-05-01 09:49 | 33.45563 | -7.56905 | 5181 ft | 173 kts | 52° |
| 2026-05-01 09:49 | 33.46380 | -7.55824 | 5657 ft | 178 kts | 53° |
| 2026-05-01 09:49 | 33.47192 | -7.54726 | 6234 ft | 179 kts | 54° |
| 2026-05-01 09:49 | 33.48035 | -7.53581 | 6675 ft | 187 kts | 54° |
| 2026-05-01 09:50 | 33.48876 | -7.52435 | 7323 ft | 183 kts | 55° |
| 2026-05-01 09:50 | 33.49754 | -7.51233 | 7661 ft | 196 kts | 54° |
| 2026-05-01 09:50 | 33.50650 | -7.50013 | 8210 ft | 198 kts | 55° |
| 2026-05-01 09:50 | 33.51538 | -7.48801 | 8747 ft | 200 kts | 55° |
| 2026-05-01 09:51 | 33.52470 | -7.47528 | 9254 ft | 203 kts | 55° |
| 2026-05-01 09:51 | 33.53403 | -7.46252 | 9724 ft | 208 kts | 55° |
| 2026-05-01 09:51 | 33.54372 | -7.44922 | 10166 ft | 214 kts | 54° |
| 2026-05-01 09:51 | 33.55341 | -7.43572 | 10523 ft | 226 kts | 50° |
| 2026-05-01 09:52 | 33.56337 | -7.42049 | 10910 ft | 232 kts | 68° |
| 2026-05-01 09:52 | 33.56765 | -7.40246 | 11507 ft | 225 kts | 82° |
| 2026-05-01 09:52 | 33.57083 | -7.38431 | 12078 ft | 223 kts | 85° |
| 2026-05-01 09:52 | 33.57384 | -7.36617 | 12616 ft | 223 kts | 85° |
| 2026-05-01 09:53 | 33.57686 | -7.34796 | 13112 ft | 225 kts | 86° |
| 2026-05-01 09:53 | 33.57994 | -7.32951 | 13608 ft | 226 kts | 85° |
| 2026-05-01 09:53 | 33.58301 | -7.31109 | 14094 ft | 228 kts | 85° |
| 2026-05-01 09:53 | 33.58614 | -7.29233 | 14581 ft | 230 kts | 85° |
| 2026-05-01 09:54 | 33.58924 | -7.27376 | 15054 ft | 231 kts | 85° |
| 2026-05-01 09:54 | 33.59242 | -7.25463 | 15533 ft | 233 kts | 85° |
| 2026-05-01 09:54 | 33.59558 | -7.23566 | 16002 ft | 235 kts | 85° |
| 2026-05-01 09:54 | 33.59875 | -7.21661 | 16464 ft | 236 kts | 85° |
| 2026-05-01 09:55 | 33.60197 | -7.19721 | 16925 ft | 238 kts | 85° |
| 2026-05-01 09:55 | 33.60519 | -7.17780 | 17384 ft | 239 kts | 85° |
| 2026-05-01 09:55 | 33.60845 | -7.15810 | 17842 ft | 241 kts | 85° |
| 2026-05-01 09:55 | 33.61168 | -7.13859 | 18292 ft | 242 kts | 85° |
| 2026-05-01 09:56 | 33.61496 | -7.11873 | 18740 ft | 243 kts | 85° |
| 2026-05-01 09:56 | 33.61794 | -7.09870 | 19095 ft | 246 kts | 86° |
| 2026-05-01 09:56 | 33.62088 | -7.07808 | 19162 ft | 262 kts | 86° |
| 2026-05-01 09:56 | 33.62408 | -7.05560 | 19171 ft | 279 kts | 85° |
| 2026-05-01 09:57 | 33.62745 | -7.03209 | 19171 ft | 292 kts | 85° |
| 2026-05-01 09:57 | 33.63090 | -7.00792 | 19168 ft | 302 kts | 85° |
| 2026-05-01 09:57 | 33.63448 | -6.98292 | 19165 ft | 310 kts | 84° |
| 2026-05-01 09:57 | 33.63818 | -6.95702 | 19163 ft | 315 kts | 84° |
| 2026-05-01 09:58 | 33.64189 | -6.93098 | 19159 ft | 320 kts | 84° |
| 2026-05-01 09:58 | 33.64565 | -6.90457 | 19155 ft | 323 kts | 84° |
| 2026-05-01 09:58 | 33.64969 | -6.87800 | 19152 ft | 326 kts | 83° |
| 2026-05-01 09:58 | 33.65388 | -6.85114 | 19148 ft | 328 kts | 83° |
| 2026-05-01 09:59 | 33.65809 | -6.82431 | 19145 ft | 330 kts | 83° |
| 2026-05-01 09:59 | 33.66237 | -6.79695 | 19141 ft | 331 kts | 83° |
| 2026-05-01 09:59 | 33.66608 | -6.77321 | 19138 ft | 332 kts | 83° |
| 2026-05-01 09:59 | 33.67035 | -6.74586 | 19131 ft | 325 kts | 83° |
| 2026-05-01 10:00 | 33.67426 | -6.72091 | 19120 ft | 311 kts | 83° |
| 2026-05-01 10:00 | 33.67823 | -6.69531 | 19125 ft | 308 kts | 83° |
| 2026-05-01 10:00 | 33.68211 | -6.67024 | 19129 ft | 308 kts | 83° |
| 2026-05-01 10:00 | 33.68603 | -6.64496 | 19130 ft | 309 kts | 83° |
| 2026-05-01 10:01 | 33.68992 | -6.61989 | 19123 ft | 299 kts | 83° |
| 2026-05-01 10:01 | 33.69363 | -6.59608 | 19112 ft | 281 kts | 84° |
| 2026-05-01 10:01 | 33.69714 | -6.57335 | 19126 ft | 279 kts | 84° |
| 2026-05-01 10:01 | 33.70070 | -6.55016 | 19131 ft | 281 kts | 84° |
| 2026-05-01 10:02 | 33.70424 | -6.52708 | 19132 ft | 282 kts | 84° |
| 2026-05-01 10:02 | 33.70778 | -6.50405 | 19131 ft | 283 kts | 84° |
| 2026-05-01 10:02 | 33.71138 | -6.48065 | 19130 ft | 283 kts | 84° |
| 2026-05-01 10:02 | 33.71492 | -6.45760 | 19131 ft | 283 kts | 84° |
| 2026-05-01 10:03 | 33.71848 | -6.43435 | 19131 ft | 283 kts | 84° |
| 2026-05-01 10:03 | 33.72203 | -6.41113 | 19131 ft | 283 kts | 84° |
| 2026-05-01 10:03 | 33.72561 | -6.38776 | 19131 ft | 283 kts | 84° |
| 2026-05-01 10:03 | 33.72912 | -6.36481 | 19131 ft | 283 kts | 84° |
| 2026-05-01 10:04 | 33.73268 | -6.34143 | 19130 ft | 283 kts | 84° |
| 2026-05-01 10:04 | 33.73623 | -6.31813 | 19129 ft | 283 kts | 84° |
| 2026-05-01 10:04 | 33.73973 | -6.29517 | 19143 ft | 280 kts | 84° |
| 2026-05-01 10:04 | 33.74324 | -6.27204 | 19197 ft | 280 kts | 84° |
| 2026-05-01 10:05 | 33.74668 | -6.24931 | 19207 ft | 280 kts | 84° |
| 2026-05-01 10:05 | 33.75024 | -6.22581 | 19214 ft | 285 kts | 84° |
| 2026-05-01 10:05 | 33.75380 | -6.20223 | 19212 ft | 287 kts | 84° |
| 2026-05-01 10:05 | 33.75737 | -6.17863 | 19211 ft | 288 kts | 84° |
| 2026-05-01 10:06 | 33.76063 | -6.15708 | 19210 ft | 288 kts | 84° |
| 2026-05-01 10:06 | 33.76382 | -6.13590 | 19210 ft | 288 kts | 84° |
| 2026-05-01 10:06 | 33.76740 | -6.11211 | 19210 ft | 288 kts | 84° |
| 2026-05-01 10:06 | 33.77093 | -6.08865 | 19210 ft | 288 kts | 84° |
| 2026-05-01 10:07 | 33.77452 | -6.06477 | 19210 ft | 288 kts | 84° |
| 2026-05-01 10:07 | 33.77805 | -6.04119 | 19211 ft | 288 kts | 84° |
| 2026-05-01 10:07 | 33.78162 | -6.01742 | 19211 ft | 289 kts | 84° |
| 2026-05-01 10:07 | 33.78514 | -5.99380 | 19211 ft | 289 kts | 84° |
| 2026-05-01 10:08 | 33.79227 | -5.94607 | 19211 ft | 289 kts | 84° |
| 2026-05-01 10:08 | 33.79578 | -5.92246 | 19211 ft | 289 kts | 84° |
| 2026-05-01 10:08 | 33.79932 | -5.89872 | 19211 ft | 289 kts | 84° |
| 2026-05-01 10:09 | 33.80283 | -5.87507 | 19211 ft | 289 kts | 84° |
| 2026-05-01 10:09 | 33.80638 | -5.85116 | 19211 ft | 289 kts | 84° |
| 2026-05-01 10:09 | 33.80987 | -5.82756 | 19211 ft | 289 kts | 84° |
| 2026-05-01 10:09 | 33.81339 | -5.80374 | 19211 ft | 289 kts | 84° |
| 2026-05-01 10:10 | 33.81689 | -5.78006 | 19212 ft | 289 kts | 84° |
| 2026-05-01 10:10 | 33.82043 | -5.75607 | 19212 ft | 289 kts | 84° |
| 2026-05-01 10:10 | 33.82742 | -5.70854 | 19212 ft | 289 kts | 84° |
| 2026-05-01 10:11 | 33.83089 | -5.68485 | 19212 ft | 289 kts | 84° |
| 2026-05-01 10:11 | 33.83439 | -5.66099 | 19212 ft | 289 kts | 84° |
| 2026-05-01 10:11 | 33.83788 | -5.63713 | 19212 ft | 289 kts | 84° |
| 2026-05-01 10:11 | 33.84135 | -5.61345 | 19212 ft | 289 kts | 84° |
| 2026-05-01 10:12 | 33.84486 | -5.58939 | 19212 ft | 289 kts | 84° |
| 2026-05-01 10:12 | 33.84830 | -5.56579 | 19212 ft | 289 kts | 84° |
| 2026-05-01 10:12 | 33.85520 | -5.51829 | 19213 ft | 289 kts | 84° |
| 2026-05-01 10:13 | 33.85867 | -5.49438 | 19213 ft | 289 kts | 84° |
| 2026-05-01 10:13 | 33.86211 | -5.47067 | 19213 ft | 289 kts | 84° |
| 2026-05-01 10:13 | 33.86560 | -5.44653 | 19213 ft | 289 kts | 84° |
| 2026-05-01 10:14 | 33.87246 | -5.39907 | 19213 ft | 289 kts | 84° |
| 2026-05-01 10:14 | 33.87517 | -5.38023 | 19213 ft | 289 kts | 84° |
| 2026-05-01 10:14 | 33.87669 | -5.36969 | 19213 ft | 289 kts | 84° |
| 2026-05-01 10:14 | 33.88009 | -5.34604 | 19213 ft | 289 kts | 85° |
| 2026-05-01 10:15 | 33.88353 | -5.32212 | 19211 ft | 289 kts | 85° |
| 2026-05-01 10:15 | 33.88693 | -5.29841 | 19211 ft | 289 kts | 85° |
| 2026-05-01 10:15 | 33.89037 | -5.27440 | 19211 ft | 289 kts | 85° |
| 2026-05-01 10:15 | 33.89375 | -5.25080 | 19211 ft | 289 kts | 85° |
| 2026-05-01 10:16 | 33.89719 | -5.22672 | 19211 ft | 289 kts | 85° |
| 2026-05-01 10:16 | 33.90058 | -5.20290 | 19211 ft | 289 kts | 85° |
| 2026-05-01 10:17 | 33.90456 | -5.17500 | 19211 ft | 289 kts | 85° |
| 2026-05-01 10:17 | 33.91135 | -5.12726 | 19211 ft | 289 kts | 85° |
| 2026-05-01 10:17 | 33.91473 | -5.10338 | 19211 ft | 289 kts | 85° |
| 2026-05-01 10:18 | 33.92145 | -5.05588 | 19211 ft | 289 kts | 85° |
| 2026-05-01 10:18 | 33.92479 | -5.03220 | 19211 ft | 289 kts | 85° |
| 2026-05-01 10:18 | 33.93095 | -5.00879 | 19180 ft | 296 kts | 62° |
| 2026-05-01 10:19 | 33.94175 | -4.98791 | 19191 ft | 299 kts | 59° |
| 2026-05-01 10:19 | 33.95303 | -4.96702 | 19204 ft | 299 kts | 59° |
| 2026-05-01 10:19 | 33.96439 | -4.94618 | 19210 ft | 299 kts | 59° |
| 2026-05-01 10:20 | 33.98735 | -4.90419 | 19185 ft | 300 kts | 58° |
| 2026-05-01 10:20 | 33.99880 | -4.88325 | 19185 ft | 300 kts | 58° |
| 2026-05-01 10:20 | 34.01025 | -4.86228 | 19185 ft | 300 kts | 58° |
| 2026-05-01 10:20 | 34.02174 | -4.84127 | 19185 ft | 301 kts | 58° |
| 2026-05-01 10:21 | 34.03325 | -4.82019 | 19185 ft | 301 kts | 58° |
| 2026-05-01 10:21 | 34.05616 | -4.77820 | 19186 ft | 301 kts | 58° |
| 2026-05-01 10:21 | 34.06765 | -4.75714 | 19186 ft | 301 kts | 58° |
| 2026-05-01 10:22 | 34.09057 | -4.71505 | 19186 ft | 301 kts | 58° |
| 2026-05-01 10:23 | 34.10171 | -4.69457 | 19186 ft | 301 kts | 58° |
| 2026-05-01 10:23 | 34.12454 | -4.65259 | 19181 ft | 301 kts | 58° |
| 2026-05-01 10:23 | 34.13597 | -4.63154 | 19181 ft | 301 kts | 58° |
| 2026-05-01 10:24 | 34.15893 | -4.58924 | 19182 ft | 301 kts | 58° |
| 2026-05-01 10:24 | 34.18175 | -4.54712 | 19182 ft | 301 kts | 58° |
| 2026-05-01 10:25 | 34.20466 | -4.50481 | 19182 ft | 301 kts | 58° |
| 2026-05-01 10:25 | 34.22753 | -4.46253 | 19183 ft | 301 kts | 58° |
| 2026-05-01 10:26 | 34.23901 | -4.44127 | 19183 ft | 301 kts | 58° |
| 2026-05-01 10:26 | 34.25036 | -4.42026 | 19183 ft | 301 kts | 58° |
| 2026-05-01 10:26 | 34.27324 | -4.37784 | 19183 ft | 301 kts | 58° |
| 2026-05-01 10:27 | 34.29597 | -4.33569 | 19179 ft | 301 kts | 58° |
| 2026-05-01 10:27 | 34.31875 | -4.29335 | 19180 ft | 301 kts | 58° |
| 2026-05-01 10:28 | 34.33028 | -4.27190 | 19180 ft | 301 kts | 58° |
| 2026-05-01 10:28 | 34.35305 | -4.22950 | 19180 ft | 301 kts | 58° |
| 2026-05-01 10:28 | 34.36439 | -4.20839 | 19180 ft | 300 kts | 58° |
| 2026-05-01 10:29 | 34.38703 | -4.16617 | 19181 ft | 300 kts | 58° |
| 2026-05-01 10:29 | 34.39838 | -4.14499 | 19181 ft | 300 kts | 58° |
| 2026-05-01 10:30 | 34.42115 | -4.10246 | 19181 ft | 300 kts | 58° |
| 2026-05-01 10:30 | 34.44369 | -4.06032 | 19181 ft | 300 kts | 58° |
| 2026-05-01 10:31 | 34.46640 | -4.01780 | 19181 ft | 300 kts | 58° |
| 2026-05-01 10:31 | 34.48901 | -3.97541 | 19182 ft | 300 kts | 58° |
| 2026-05-01 10:32 | 34.51157 | -3.93307 | 19182 ft | 300 kts | 58° |
| 2026-05-01 10:32 | 34.52276 | -3.91205 | 19182 ft | 300 kts | 58° |
| 2026-05-01 10:32 | 34.54547 | -3.86934 | 19183 ft | 300 kts | 58° |
| 2026-05-01 10:33 | 34.56787 | -3.82719 | 19183 ft | 300 kts | 58° |
| 2026-05-01 10:33 | 34.59049 | -3.78457 | 19183 ft | 300 kts | 58° |
| 2026-05-01 10:34 | 34.60157 | -3.76366 | 18888 ft | 292 kts | 58° |
| 2026-05-01 10:34 | 34.61243 | -3.74315 | 18380 ft | 289 kts | 58° |
| 2026-05-01 10:34 | 34.62300 | -3.72320 | 18133 ft | 277 kts | 58° |
| 2026-05-01 10:35 | 34.64316 | -3.68511 | 17606 ft | 258 kts | 58° |
| 2026-05-01 10:35 | 34.65262 | -3.66722 | 17348 ft | 250 kts | 59° |
| 2026-05-01 10:35 | 34.66183 | -3.64979 | 17090 ft | 244 kts | 59° |
| 2026-05-01 10:35 | 34.67093 | -3.63254 | 16831 ft | 237 kts | 59° |
| 2026-05-01 10:36 | 34.68821 | -3.59980 | 16323 ft | 227 kts | 59° |
| 2026-05-01 10:36 | 34.69675 | -3.58361 | 16062 ft | 223 kts | 59° |
| 2026-05-01 10:36 | 34.70498 | -3.56799 | 15810 ft | 219 kts | 59° |
| 2026-05-01 10:37 | 34.71307 | -3.55265 | 15558 ft | 215 kts | 59° |
| 2026-05-01 10:37 | 34.72892 | -3.52255 | 15055 ft | 209 kts | 59° |
| 2026-05-01 10:37 | 34.73674 | -3.50768 | 14802 ft | 206 kts | 59° |
| 2026-05-01 10:38 | 34.74432 | -3.49327 | 14553 ft | 203 kts | 59° |
| 2026-05-01 10:38 | 34.75186 | -3.47894 | 14305 ft | 200 kts | 58° |
| 2026-05-01 10:38 | 34.75928 | -3.46483 | 14056 ft | 198 kts | 59° |
| 2026-05-01 10:38 | 34.76671 | -3.45069 | 13806 ft | 196 kts | 58° |
| 2026-05-01 10:39 | 34.77396 | -3.43688 | 13558 ft | 194 kts | 58° |
| 2026-05-01 10:39 | 34.78118 | -3.42312 | 13310 ft | 192 kts | 58° |
| 2026-05-01 10:39 | 34.78834 | -3.40948 | 13063 ft | 190 kts | 58° |
| 2026-05-01 10:39 | 34.79541 | -3.39600 | 12816 ft | 189 kts | 58° |
| 2026-05-01 10:40 | 34.80244 | -3.38260 | 12569 ft | 187 kts | 58° |
| 2026-05-01 10:40 | 34.80933 | -3.36945 | 12325 ft | 186 kts | 58° |
| 2026-05-01 10:40 | 34.81625 | -3.35625 | 12079 ft | 184 kts | 58° |
| 2026-05-01 10:40 | 34.82313 | -3.34314 | 11831 ft | 183 kts | 59° |
| 2026-05-01 10:41 | 34.82988 | -3.33030 | 11583 ft | 181 kts | 60° |
| 2026-05-01 10:41 | 34.83666 | -3.31735 | 11332 ft | 180 kts | 60° |
| 2026-05-01 10:41 | 34.85001 | -3.29185 | 10837 ft | 177 kts | 62° |
| 2026-05-01 10:42 | 34.85655 | -3.27935 | 10592 ft | 175 kts | 62° |
| 2026-05-01 10:42 | 34.86310 | -3.26675 | 10341 ft | 174 kts | 62° |
| 2026-05-01 10:42 | 34.86952 | -3.25450 | 10100 ft | 173 kts | 63° |
| 2026-05-01 10:42 | 34.87594 | -3.24219 | 9853 ft | 171 kts | 63° |
| 2026-05-01 10:43 | 34.88227 | -3.23008 | 9612 ft | 170 kts | 63° |
| 2026-05-01 10:43 | 34.88860 | -3.21794 | 9364 ft | 168 kts | 64° |
| 2026-05-01 10:43 | 34.89488 | -3.20588 | 9117 ft | 167 kts | 64° |
| 2026-05-01 10:43 | 34.90104 | -3.19404 | 8868 ft | 166 kts | 63° |
| 2026-05-01 10:44 | 34.90717 | -3.18228 | 8624 ft | 165 kts | 64° |
| 2026-05-01 10:44 | 34.91332 | -3.17057 | 8391 ft | 162 kts | 65° |
| 2026-05-01 10:44 | 34.91925 | -3.15910 | 8137 ft | 161 kts | 64° |
| 2026-05-01 10:44 | 34.92451 | -3.14872 | 7903 ft | 162 kts | 57° |
| 2026-05-01 10:45 | 34.93041 | -3.13702 | 7652 ft | 159 kts | 51° |
| 2026-05-01 10:45 | 34.93644 | -3.12578 | 7411 ft | 158 kts | 51° |
| 2026-05-01 10:45 | 34.94237 | -3.11462 | 7151 ft | 158 kts | 51° |
| 2026-05-01 10:45 | 34.94823 | -3.10336 | 6903 ft | 156 kts | 51° |
| 2026-05-01 10:46 | 34.95401 | -3.09229 | 6655 ft | 155 kts | 51° |
| 2026-05-01 10:46 | 34.95978 | -3.08123 | 6400 ft | 154 kts | 51° |
| 2026-05-01 10:46 | 34.96538 | -3.07045 | 6162 ft | 152 kts | 51° |
| 2026-05-01 10:46 | 34.97108 | -3.05950 | 5892 ft | 152 kts | 52° |
| 2026-05-01 10:47 | 34.97659 | -3.04888 | 5655 ft | 150 kts | 53° |
| 2026-05-01 10:47 | 34.98406 | -3.04106 | 5397 ft | 140 kts | 12° |
| 2026-05-01 10:47 | 34.99324 | -3.04267 | 5142 ft | 135 kts | 328° |
| 2026-05-01 10:47 | 34.99813 | -3.05193 | 5004 ft | 130 kts | 281° |
| 2026-05-01 10:48 | 34.99761 | -3.06235 | 4908 ft | 120 kts | 268° |
| 2026-05-01 10:48 | 34.99640 | -3.07379 | 4798 ft | 142 kts | 269° |
| 2026-05-01 10:48 | 34.99528 | -3.08560 | 5131 ft | 160 kts | 268° |
| 2026-05-01 10:48 | 34.99410 | -3.10118 | 5043 ft | 202 kts | 268° |
| 2026-05-01 10:49 | 34.99286 | -3.11915 | 5015 ft | 221 kts | 269° |
| 2026-05-01 10:49 | 34.99161 | -3.13813 | 4996 ft | 225 kts | 269° |
| 2026-05-01 10:49 | 34.99063 | -3.15697 | 4990 ft | 226 kts | 270° |
| 2026-05-01 10:49 | 34.98965 | -3.17605 | 4982 ft | 225 kts | 270° |
| 2026-05-01 10:50 | 34.98867 | -3.19490 | 4980 ft | 223 kts | 269° |
| 2026-05-01 10:50 | 34.98777 | -3.21359 | 4982 ft | 224 kts | 270° |
| 2026-05-01 10:50 | 34.98690 | -3.23245 | 4984 ft | 220 kts | 271° |
| 2026-05-01 10:50 | 34.98669 | -3.24603 | 4993 ft | 219 kts | 271° |
| 2026-05-01 10:51 | 34.98629 | -3.26475 | 5003 ft | 219 kts | 272° |
| 2026-05-01 10:51 | 34.98589 | -3.28367 | 4993 ft | 225 kts | 272° |
| 2026-05-01 10:51 | 34.98549 | -3.30244 | 4973 ft | 221 kts | 272° |
| 2026-05-01 10:51 | 34.98512 | -3.31771 | 4960 ft | 221 kts | 270° |
| 2026-05-01 10:52 | 34.98283 | -3.32852 | 4680 ft | 226 kts | 244° |
| 2026-05-01 10:52 | 34.97105 | -3.34037 | 4421 ft | 223 kts | 202° |
| 2026-05-01 10:53 | 34.95617 | -3.34004 | 4148 ft | 217 kts | 158° |
| 2026-05-01 10:53 | 34.94603 | -3.32807 | 4084 ft | 202 kts | 111° |
| 2026-05-01 10:53 | 34.94159 | -3.31220 | 4079 ft | 199 kts | 102° |
| 2026-05-01 10:53 | 34.94236 | -3.29622 | 4124 ft | 192 kts | 75° |
| 2026-05-01 10:54 | 34.94521 | -3.28001 | 4102 ft | 195 kts | 74° |
| 2026-05-01 10:54 | 34.94803 | -3.26406 | 4095 ft | 196 kts | 74° |
| 2026-05-01 10:54 | 34.95085 | -3.24792 | 4089 ft | 188 kts | 75° |
| 2026-05-01 10:54 | 34.95365 | -3.23200 | 3851 ft | 192 kts | 75° |
| 2026-05-01 10:55 | 34.95643 | -3.21615 | 3591 ft | 193 kts | 75° |
| 2026-05-01 10:55 | 34.95918 | -3.20039 | 3333 ft | 187 kts | 75° |
| 2026-05-01 10:55 | 34.96192 | -3.18471 | 3072 ft | 191 kts | 75° |
| 2026-05-01 10:55 | 34.96460 | -3.16925 | 2799 ft | 186 kts | 75° |
| 2026-05-01 10:56 | 34.96727 | -3.15403 | 2536 ft | 180 kts | 76° |
| 2026-05-01 10:56 | 34.96978 | -3.13943 | 2281 ft | 175 kts | 76° |
| 2026-05-01 10:56 | 34.97233 | -3.12508 | 2035 ft | 168 kts | 75° |
| 2026-05-01 10:56 | 34.97465 | -3.11160 | 1906 ft | 166 kts | 75° |
| 2026-05-01 10:57 | 34.97695 | -3.09831 | 1607 ft | 151 kts | 76° |
| 2026-05-01 10:57 | 34.97897 | -3.08670 | 1396 ft | 130 kts | 76° |
| 2026-05-01 10:57 | 34.98074 | -3.07632 | 1191 ft | 123 kts | 75° |
| 2026-05-01 10:57 | 34.98254 | -3.06652 | 1017 ft | 119 kts | 78° |
| 2026-05-01 10:58 | 34.98425 | -3.05656 | 865 ft | 122 kts | 76° |
| 2026-05-01 10:58 | 34.98605 | -3.04650 | 675 ft | 117 kts | 75° |
| 2026-05-01 10:58 | 34.98765 | -3.03732 | 581 ft | 100 kts | 78° |
| 2026-05-01 10:58 | 34.98889 | -3.03005 | 580 ft | 68 kts | 77° |
| 2026-05-01 10:59 | 34.99113 | -3.02868 | 580 ft | 29 kts | 355° |
| 2026-05-01 10:59 | 34.99191 | -3.02892 | 580 ft | 5 kts | 327° |
| 2026-05-01 10:59 | 34.99223 | -3.02904 | 580 ft | 3 kts | 348° |
| 2026-05-01 10:59 | 34.99226 | -3.02905 | 580 ft | 0 kts | 348° |